createdAt,value
2023-03-19T00:01:05.436Z,7.17
2023-03-19T00:03:33.716Z,8.47
2023-03-19T00:06:02.283Z,7.90
2023-03-19T00:08:30.785Z,7.80
2023-03-19T00:10:58.805Z,7.67
2023-03-19T00:13:27.074Z,7.50
2023-03-19T00:15:55.292Z,7.53
2023-03-19T00:18:24.787Z,7.00
2023-03-19T00:20:53.015Z,7.53
2023-03-19T00:23:21.097Z,7.60
2023-03-19T00:25:49.245Z,6.90
2023-03-19T00:28:18.381Z,6.90
2023-03-19T00:30:46.537Z,6.83
2023-03-19T00:33:15.052Z,7.00
2023-03-19T00:35:44.599Z,7.87
2023-03-19T00:38:12.818Z,7.53
2023-03-19T00:40:41.415Z,7.57
2023-03-19T00:43:09.508Z,7.27
2023-03-19T00:45:37.567Z,6.90
2023-03-19T00:48:06.441Z,7.33
2023-03-19T00:50:34.495Z,7.30
2023-03-19T00:53:04.185Z,6.70
2023-03-19T00:55:33.466Z,6.80
2023-03-19T00:58:02.300Z,6.90
2023-03-19T01:00:30.456Z,6.70
2023-03-19T01:02:58.512Z,7.80
2023-03-19T01:05:27.227Z,7.70
2023-03-19T01:07:56.364Z,7.20
2023-03-19T01:10:26.480Z,7.27
2023-03-19T01:12:54.622Z,7.80
2023-03-19T01:17:50.119Z,6.97
2023-03-19T01:20:20.430Z,6.90
2023-03-19T01:22:48.834Z,7.23
2023-03-19T01:25:16.991Z,7.47
2023-03-19T01:27:59.091Z,7.87
2023-03-19T01:30:27.318Z,7.00
2023-03-19T01:33:16.032Z,8.80
2023-03-19T01:36:05.637Z,7.63
2023-03-19T01:38:57.065Z,7.97
2023-03-19T01:41:26.356Z,7.43
2023-03-19T01:43:59.758Z,7.57
2023-03-19T01:46:41.918Z,7.93
2023-03-19T01:49:30.204Z,7.90
2023-03-19T01:52:14.729Z,8.50
2023-03-19T01:55:09.008Z,11.90
2023-03-19T01:57:56.178Z,11.00
2023-03-19T02:00:47.706Z,10.97
2023-03-19T02:03:15.887Z,10.93
2023-03-19T02:06:00.951Z,10.97
2023-03-19T02:08:30.121Z,8.40
2023-03-19T02:11:00.435Z,8.07
2023-03-19T02:13:29.124Z,8.23
2023-03-19T02:15:58.896Z,7.80
2023-03-19T02:18:27.210Z,8.07
2023-03-19T02:21:04.388Z,12.83
2023-03-19T02:23:38.534Z,13.80
2023-03-19T02:26:18.632Z,13.27
2023-03-19T02:28:52.043Z,12.00
2023-03-19T02:31:28.951Z,12.20
2023-03-19T02:33:59.861Z,8.90
2023-03-19T02:36:32.853Z,9.40
2023-03-19T02:39:03.965Z,9.20
2023-03-19T02:41:35.407Z,9.03
2023-03-19T02:44:05.368Z,11.90
2023-03-19T02:46:33.852Z,12.83
2023-03-19T02:49:02.458Z,12.20
2023-03-19T02:51:30.930Z,9.57
2023-03-19T02:54:00.868Z,10.33
2023-03-19T02:56:29.038Z,10.03
2023-03-19T02:58:58.662Z,9.30
2023-03-19T03:01:26.971Z,9.90
2023-03-19T03:03:55.236Z,10.20
2023-03-19T03:06:24.000Z,10.53
2023-03-19T03:08:52.108Z,8.90
2023-03-19T03:11:20.278Z,8.80
2023-03-19T03:13:48.384Z,10.60
2023-03-19T03:16:17.864Z,10.40
2023-03-19T03:18:46.053Z,10.50
2023-03-19T03:21:14.312Z,10.43
2023-03-19T03:23:42.480Z,10.77
2023-03-19T03:26:10.656Z,9.73
2023-03-19T03:28:38.760Z,9.33
2023-03-19T03:31:10.020Z,11.10
2023-03-19T03:33:42.417Z,10.00
2023-03-19T03:36:10.694Z,10.90
2023-03-19T03:38:38.839Z,11.60
2023-03-19T03:41:07.726Z,9.67
2023-03-19T03:43:36.233Z,10.10
2023-03-19T03:46:04.408Z,9.70
2023-03-19T03:48:32.707Z,10.20
2023-03-19T03:51:03.243Z,10.27
2023-03-19T03:53:31.839Z,10.50
2023-03-19T03:56:00.408Z,11.27
2023-03-19T03:58:30.456Z,10.90
2023-03-19T04:00:58.641Z,11.37
2023-03-19T04:03:27.176Z,10.80
2023-03-19T04:05:55.938Z,11.10
2023-03-19T04:08:25.720Z,12.00
2023-03-19T04:10:53.814Z,11.43
2023-03-19T04:13:22.012Z,10.70
2023-03-19T04:15:50.443Z,11.60
2023-03-19T04:18:18.683Z,11.60
2023-03-19T04:20:47.730Z,11.73
2023-03-19T04:23:15.884Z,11.80
2023-03-19T04:25:45.352Z,11.67
2023-03-19T04:28:13.569Z,11.60
2023-03-19T04:30:43.438Z,13.00
2023-03-19T04:33:11.948Z,12.07
2023-03-19T04:35:42.101Z,12.60
2023-03-19T04:38:10.442Z,11.80
2023-03-19T04:40:38.601Z,11.90
2023-03-19T04:43:08.483Z,12.80
2023-03-19T04:45:36.880Z,12.90
2023-03-19T04:48:05.578Z,12.70
2023-03-19T04:50:36.081Z,13.47
2023-03-19T04:53:04.683Z,13.03
2023-03-19T04:55:33.074Z,13.47
2023-03-19T04:58:10.962Z,13.50
2023-03-19T05:00:39.385Z,13.90
2023-03-19T05:03:08.614Z,14.70
2023-03-19T05:05:37.672Z,14.23
2023-03-19T05:08:09.683Z,14.33
2023-03-19T05:10:39.248Z,14.10
2023-03-19T05:13:08.457Z,14.50
2023-03-19T05:15:47.502Z,13.70
2023-03-19T05:18:16.566Z,13.60
2023-03-19T05:20:45.982Z,14.80
2023-03-19T05:23:23.437Z,15.17
2023-03-19T05:26:11.654Z,14.93
2023-03-19T05:28:58.149Z,13.70
2023-03-19T05:31:37.075Z,11.23
2023-03-19T05:34:05.714Z,14.40
2023-03-19T05:36:35.638Z,14.80
2023-03-19T05:39:15.342Z,15.50
2023-03-19T05:41:45.204Z,14.67
2023-03-19T05:44:18.082Z,15.47
2023-03-19T05:46:56.745Z,15.23
2023-03-19T05:49:28.148Z,15.83
2023-03-19T05:51:56.411Z,15.70
2023-03-19T05:54:25.065Z,16.30
2023-03-19T05:57:05.240Z,16.90
2023-03-19T05:59:42.080Z,17.13
2023-03-19T06:02:44.288Z,15.37
2023-03-19T06:05:18.679Z,17.33
2023-03-19T06:07:47.568Z,16.17
2023-03-19T06:10:25.881Z,18.43
2023-03-19T06:12:56.513Z,17.03
2023-03-19T06:15:52.056Z,18.10
2023-03-19T06:18:47.705Z,17.10
2023-03-19T06:21:17.208Z,19.20
2023-03-19T06:23:45.608Z,18.90
2023-03-19T06:26:17.381Z,18.27
2023-03-19T06:28:56.873Z,20.20
2023-03-19T06:31:25.987Z,17.93
2023-03-19T06:33:55.620Z,20.17
2023-03-19T06:36:27.410Z,19.60
2023-03-19T06:38:56.152Z,18.90
2023-03-19T06:41:24.820Z,19.53
2023-03-19T06:43:53.778Z,19.30
2023-03-19T06:46:21.849Z,19.60
2023-03-19T06:48:49.919Z,20.83
2023-03-19T06:51:19.497Z,24.90
2023-03-19T06:53:47.654Z,26.40
2023-03-19T06:56:15.912Z,28.50
2023-03-19T06:58:44.124Z,26.90
2023-03-19T07:01:12.533Z,20.83
2023-03-19T07:03:40.643Z,20.87
2023-03-19T07:06:08.763Z,22.83
2023-03-19T07:08:38.286Z,19.90
2023-03-19T07:11:07.889Z,22.20
2023-03-19T07:13:38.005Z,21.67
2023-03-19T07:16:07.138Z,21.73
2023-03-19T07:18:35.319Z,20.77
2023-03-19T07:21:03.697Z,20.30
2023-03-19T07:23:31.933Z,20.80
2023-03-19T07:26:01.375Z,18.30
2023-03-19T07:28:29.449Z,20.30
2023-03-19T07:30:57.589Z,20.40
2023-03-19T07:33:25.986Z,18.37
2023-03-19T07:35:54.238Z,19.77
2023-03-19T07:38:22.797Z,19.60
2023-03-19T07:41:01.984Z,19.23
2023-03-19T07:43:32.578Z,19.97
2023-03-19T07:46:01.029Z,22.20
2023-03-19T07:48:29.189Z,21.47
2023-03-19T07:50:57.315Z,18.70
2023-03-19T07:53:25.560Z,20.33
2023-03-19T07:55:54.120Z,19.20
2023-03-19T07:58:22.218Z,18.03
2023-03-19T08:00:51.718Z,17.90
2023-03-19T08:03:19.796Z,18.00
2023-03-19T08:05:49.886Z,17.20
2023-03-19T08:08:19.133Z,16.47
2023-03-19T08:10:48.201Z,17.80
2023-03-19T08:13:16.366Z,15.00
2023-03-19T08:15:44.650Z,15.40
2023-03-19T08:18:14.141Z,16.40
2023-03-19T08:20:42.278Z,16.33
2023-03-19T08:23:10.548Z,17.03
2023-03-19T08:25:39.131Z,19.87
2023-03-19T08:28:09.724Z,16.40
2023-03-19T08:30:38.376Z,16.37
2023-03-19T08:33:07.120Z,14.27
2023-03-19T08:35:36.615Z,14.43
2023-03-19T08:38:04.758Z,14.67
2023-03-19T08:40:33.362Z,14.33
2023-03-19T08:43:01.727Z,13.47
2023-03-19T08:45:29.923Z,13.50
2023-03-19T08:47:59.034Z,13.70
2023-03-19T08:50:27.526Z,13.30
2023-03-19T08:52:57.636Z,13.60
2023-03-19T08:55:26.093Z,17.97
2023-03-19T08:57:54.186Z,13.20
2023-03-19T09:00:23.615Z,12.57
2023-03-19T09:02:51.723Z,12.70
2023-03-19T09:05:22.430Z,12.00
2023-03-19T09:07:52.060Z,13.27
2023-03-19T09:10:21.506Z,12.03
2023-03-19T09:13:05.084Z,12.67
2023-03-19T09:15:39.053Z,12.70
2023-03-19T09:18:07.524Z,12.20
2023-03-19T09:20:35.845Z,12.80
2023-03-19T09:23:03.937Z,11.30
2023-03-19T09:25:33.753Z,12.33
2023-03-19T09:28:02.172Z,12.37
2023-03-19T09:30:30.808Z,12.60
2023-03-19T09:32:59.379Z,12.50
2023-03-19T09:35:31.276Z,12.93
2023-03-19T09:37:59.613Z,12.73
2023-03-19T09:40:30.056Z,11.10
2023-03-19T09:43:18.675Z,13.30
2023-03-19T09:45:48.535Z,12.40
2023-03-19T09:48:20.672Z,12.13
2023-03-19T09:50:51.238Z,13.10
2023-03-19T09:53:25.913Z,14.60
2023-03-19T09:55:54.727Z,12.63
2023-03-19T09:58:29.781Z,11.97
2023-03-19T10:01:00.106Z,10.83
2023-03-19T10:03:53.478Z,11.90
2023-03-19T10:06:31.848Z,12.23
2023-03-19T10:09:11.981Z,10.70
2023-03-19T10:11:52.739Z,10.87
2023-03-19T10:15:11.812Z,10.90
2023-03-19T10:17:44.301Z,10.40
2023-03-19T10:20:24.128Z,10.30
2023-03-19T10:22:56.187Z,10.97
2023-03-19T10:25:27.799Z,12.27
2023-03-19T10:28:01.438Z,10.93
2023-03-19T10:30:33.581Z,12.47
2023-03-19T10:33:14.763Z,10.60
2023-03-19T10:35:46.139Z,11.50
2023-03-19T10:38:21.308Z,11.20
2023-03-19T10:41:02.917Z,11.13
2023-03-19T10:43:34.429Z,11.23
2023-03-19T10:46:02.620Z,12.40
2023-03-19T10:48:33.454Z,12.60
2023-03-19T10:51:03.202Z,11.97
2023-03-19T10:53:34.583Z,11.87
2023-03-19T10:56:04.928Z,12.97
2023-03-19T10:58:34.957Z,12.17
2023-03-19T11:01:07.259Z,12.07
2023-03-19T11:03:39.689Z,12.20
2023-03-19T11:06:19.260Z,11.43
2023-03-19T11:08:55.524Z,12.87
2023-03-19T11:11:35.777Z,12.50
2023-03-19T11:14:10.143Z,12.50
2023-03-19T11:16:56.050Z,14.20
2023-03-19T11:19:28.163Z,12.90
2023-03-19T11:22:09.397Z,13.50
2023-03-19T11:24:39.721Z,14.60
2023-03-19T11:27:09.240Z,15.20
2023-03-19T11:29:41.896Z,14.80
2023-03-19T11:32:23.347Z,14.97
2023-03-19T11:34:59.063Z,15.73
2023-03-19T11:37:43.752Z,16.60
2023-03-19T11:40:22.765Z,17.87
2023-03-19T11:43:12.177Z,17.90
2023-03-19T11:45:47.377Z,17.83
2023-03-19T11:48:35.483Z,18.37
2023-03-19T11:51:09.549Z,17.20
2023-03-19T11:53:42.867Z,18.77
2023-03-19T11:56:21.468Z,18.20
2023-03-19T11:59:05.426Z,19.13
2023-03-19T12:01:51.928Z,19.70
2023-03-19T12:04:45.987Z,20.00
2023-03-19T12:07:26.430Z,21.17
2023-03-19T12:10:04.272Z,23.63
2023-03-19T12:12:38.630Z,21.33
2023-03-19T12:15:19.349Z,24.50
2023-03-19T12:17:59.544Z,23.37
2023-03-19T12:20:34.476Z,21.67
2023-03-19T12:23:13.669Z,22.67
2023-03-19T12:26:04.458Z,22.10
2023-03-19T12:28:35.845Z,20.20
2023-03-19T12:31:47.852Z,21.90
2023-03-19T12:34:29.701Z,20.03
2023-03-19T12:37:15.891Z,20.97
2023-03-19T12:39:54.892Z,20.40
2023-03-19T12:42:27.648Z,21.63
2023-03-19T12:44:59.144Z,20.37
2023-03-19T12:47:32.061Z,20.93
2023-03-19T12:50:04.688Z,20.53
2023-03-19T12:53:38.407Z,20.80
2023-03-19T12:56:12.259Z,18.60
2023-03-19T12:58:55.879Z,19.07
2023-03-19T13:01:33.956Z,18.50
2023-03-19T13:04:09.595Z,18.70
2023-03-19T13:06:40.748Z,18.17
2023-03-19T13:09:17.483Z,16.80
2023-03-19T13:11:52.622Z,17.63
2023-03-19T13:14:26.674Z,16.70
2023-03-19T13:17:03.170Z,17.60
2023-03-19T13:19:36.398Z,15.73
2023-03-19T13:22:10.558Z,14.93
2023-03-19T13:24:44.326Z,15.13
2023-03-19T13:27:20.709Z,16.23
2023-03-19T13:30:07.366Z,17.50
2023-03-19T13:32:42.635Z,17.23
2023-03-19T13:35:25.092Z,17.77
2023-03-19T13:38:01.256Z,17.87
2023-03-19T13:40:41.947Z,14.83
2023-03-19T13:43:43.012Z,14.27
2023-03-19T13:46:43.125Z,13.60
2023-03-19T13:49:28.454Z,12.57
2023-03-19T13:52:01.380Z,13.07
2023-03-19T13:54:41.016Z,12.93
2023-03-19T13:57:34.616Z,13.30
2023-03-19T14:00:42.681Z,11.87
2023-03-19T14:03:22.013Z,13.43
2023-03-19T14:05:51.957Z,12.73
2023-03-19T14:08:23.456Z,13.47
2023-03-19T14:10:54.177Z,13.03
2023-03-19T14:13:31.415Z,14.97
2023-03-19T14:16:07.907Z,13.30
2023-03-19T14:18:44.026Z,13.93
2023-03-19T14:21:20.068Z,11.00
2023-03-19T14:23:57.718Z,10.57
2023-03-19T14:26:28.885Z,9.87
2023-03-19T14:29:00.984Z,10.30
2023-03-19T14:31:38.218Z,10.57
2023-03-19T14:34:20.679Z,10.33
2023-03-19T14:36:54.903Z,11.37
2023-03-19T14:39:24.910Z,11.50
2023-03-19T14:42:01.628Z,10.40
2023-03-19T14:45:02.154Z,9.90
2023-03-19T14:47:52.805Z,9.60
2023-03-19T14:51:06.173Z,9.27
2023-03-19T14:53:41.525Z,8.87
2023-03-19T14:56:15.954Z,8.20
2023-03-19T14:58:52.144Z,8.63
2023-03-19T15:01:21.175Z,9.20
2023-03-19T15:03:55.178Z,7.50
2023-03-19T15:06:25.271Z,8.90
2023-03-19T15:08:53.573Z,8.17
2023-03-19T15:11:44.124Z,9.20
2023-03-19T15:14:28.297Z,9.87
2023-03-19T15:17:06.409Z,10.13
2023-03-19T15:19:37.519Z,9.53
2023-03-19T15:22:12.890Z,9.43
2023-03-19T15:24:41.162Z,8.67
2023-03-19T15:27:23.338Z,8.73
2023-03-19T15:29:52.060Z,8.80
2023-03-19T15:33:03.040Z,8.60
2023-03-19T15:35:24.251Z,8.87
2023-03-19T15:37:58.372Z,8.63
2023-03-19T15:40:30.228Z,8.63
2023-03-19T15:43:06.710Z,8.27
2023-03-19T15:45:36.286Z,8.90
2023-03-19T15:48:09.879Z,8.80
2023-03-19T15:50:42.742Z,9.30
2023-03-19T15:53:16.511Z,8.90
2023-03-19T15:55:44.869Z,8.20
2023-03-19T15:58:21.247Z,8.50
2023-03-19T16:00:49.801Z,9.10
2023-03-19T16:03:20.922Z,8.93
2023-03-19T16:05:53.757Z,8.60
2023-03-19T16:08:25.789Z,8.90
2023-03-19T16:10:54.184Z,9.20
2023-03-19T16:13:33.229Z,8.20
2023-03-19T16:16:03.817Z,7.97
2023-03-19T16:18:45.598Z,7.60
2023-03-19T16:21:17.127Z,9.07
2023-03-19T16:23:51.680Z,8.07
2023-03-19T16:26:23.409Z,7.67
2023-03-19T16:29:18.974Z,8.90
2023-03-19T16:31:51.947Z,8.00
2023-03-19T16:34:28.146Z,7.90
2023-03-19T16:36:57.639Z,7.63
2023-03-19T16:39:34.224Z,7.77
2023-03-19T16:42:31.097Z,7.60
2023-03-19T16:45:03.006Z,6.47
2023-03-19T16:47:31.169Z,6.80
2023-03-19T16:49:59.373Z,6.97
2023-03-19T16:52:27.452Z,7.37
2023-03-19T16:54:58.672Z,6.70
2023-03-19T16:57:27.102Z,7.30
2023-03-19T16:59:55.378Z,9.13
2023-03-19T17:02:23.583Z,7.97
2023-03-19T17:04:51.668Z,8.50
2023-03-19T17:07:19.796Z,9.13
2023-03-19T17:09:47.950Z,8.30
2023-03-19T17:12:18.663Z,8.60
2023-03-19T17:14:48.588Z,8.30
2023-03-19T17:17:21.980Z,8.27
2023-03-19T17:19:51.477Z,9.30
2023-03-19T17:22:19.717Z,9.60
2023-03-19T17:24:47.889Z,8.90
2023-03-19T17:27:17.404Z,8.67
2023-03-19T17:29:45.734Z,7.87
2023-03-19T17:32:19.904Z,7.50
2023-03-19T17:34:48.423Z,7.60
2023-03-19T17:37:16.645Z,8.00
2023-03-19T17:39:45.925Z,8.13
2023-03-19T17:42:22.496Z,8.60
2023-03-19T17:44:50.865Z,8.00
2023-03-19T17:47:19.519Z,9.80
2023-03-19T17:49:48.370Z,10.60
2023-03-19T17:52:17.284Z,10.03
2023-03-19T17:54:46.248Z,9.60
2023-03-19T17:57:16.312Z,9.80
2023-03-19T17:59:45.754Z,10.43
2023-03-19T18:02:27.327Z,9.87
2023-03-19T18:04:56.171Z,11.90
2023-03-19T18:07:24.533Z,11.87
2023-03-19T18:09:53.577Z,11.50
2023-03-19T18:12:21.895Z,12.10
2023-03-19T18:14:51.455Z,12.80
2023-03-19T18:17:20.344Z,13.40
2023-03-19T18:19:52.290Z,12.83
2023-03-19T18:22:21.657Z,12.80
2023-03-19T18:24:49.796Z,12.50
2023-03-19T18:27:17.969Z,14.83
2023-03-19T18:29:46.145Z,15.40
2023-03-19T18:32:21.408Z,13.37
2023-03-19T18:34:49.674Z,13.60
2023-03-19T18:37:19.076Z,13.10
2023-03-19T18:39:47.643Z,12.43
2023-03-19T18:42:16.145Z,11.43
2023-03-19T18:44:49.855Z,10.03
2023-03-19T18:47:19.970Z,11.43
2023-03-19T18:49:48.255Z,10.90
2023-03-19T18:52:19.323Z,11.47
2023-03-19T18:54:47.732Z,11.50
2023-03-19T18:57:16.855Z,11.30
2023-03-19T18:59:45.292Z,14.20
2023-03-19T19:02:34.457Z,15.70
2023-03-19T19:05:04.405Z,16.60
2023-03-19T19:07:32.464Z,14.57
2023-03-19T19:10:00.715Z,15.87
2023-03-19T19:12:28.895Z,16.50
2023-03-19T19:14:58.707Z,16.27
2023-03-19T19:17:29.506Z,20.97
2023-03-19T19:19:59.004Z,20.87
2023-03-19T19:22:27.951Z,19.47
2023-03-19T19:24:56.036Z,19.10
2023-03-19T19:27:26.964Z,18.27
2023-03-19T19:29:55.285Z,18.40
2023-03-19T19:32:25.939Z,15.30
2023-03-19T19:34:54.843Z,16.70
2023-03-19T19:37:27.580Z,17.70
2023-03-19T19:39:57.033Z,22.30
2023-03-19T19:42:26.545Z,26.67
2023-03-19T19:44:58.734Z,30.40
2023-03-19T19:47:27.645Z,29.20
2023-03-19T19:49:56.548Z,31.63
2023-03-19T19:52:26.157Z,30.97
2023-03-19T19:54:54.264Z,30.73
2023-03-19T19:57:24.804Z,28.80
2023-03-19T19:59:54.191Z,27.80
2023-03-19T20:02:23.974Z,30.43
2023-03-19T20:04:52.035Z,28.23
2023-03-19T20:07:20.061Z,28.30
2023-03-19T20:09:49.844Z,31.30
2023-03-19T20:12:21.674Z,29.93
2023-03-19T20:14:50.733Z,32.37
2023-03-19T20:17:20.836Z,30.17
2023-03-19T20:19:49.278Z,28.93
2023-03-19T20:22:17.658Z,28.00
2023-03-19T20:24:50.264Z,29.97
2023-03-19T20:27:23.160Z,30.17
2023-03-19T20:29:53.789Z,29.47
2023-03-19T20:32:32.683Z,32.13
2023-03-19T20:35:01.538Z,33.40
2023-03-19T20:37:30.049Z,32.67
2023-03-19T20:39:58.118Z,30.77
2023-03-19T20:42:29.759Z,33.77
2023-03-19T20:44:59.834Z,32.57
2023-03-19T20:47:28.135Z,30.90
2023-03-19T20:49:56.273Z,31.37
2023-03-19T20:52:24.405Z,30.57
2023-03-19T20:54:52.680Z,30.33
2023-03-19T20:57:29.071Z,30.77
2023-03-19T21:00:00.461Z,30.47
2023-03-19T21:02:28.643Z,29.93
2023-03-19T21:04:56.855Z,29.50
2023-03-19T21:07:30.692Z,28.87
2023-03-19T21:09:59.314Z,29.27
2023-03-19T21:12:29.817Z,29.07
2023-03-19T21:15:00.843Z,29.50
2023-03-19T21:17:29.698Z,29.73
2023-03-19T21:19:57.884Z,27.63
2023-03-19T21:22:29.461Z,29.47
2023-03-19T21:25:07.987Z,30.17
2023-03-19T21:27:37.806Z,30.50
2023-03-19T21:30:09.098Z,29.17
2023-03-19T21:32:37.281Z,29.37
2023-03-19T21:35:06.553Z,28.80
2023-03-19T21:37:34.618Z,29.80
2023-03-19T21:40:03.890Z,30.07
2023-03-19T21:42:35.792Z,30.47
2023-03-19T21:45:03.940Z,28.50
2023-03-19T21:47:33.489Z,29.07
2023-03-19T21:50:02.491Z,29.67
2023-03-19T21:52:30.756Z,28.90
2023-03-19T21:54:58.794Z,30.00
2023-03-19T21:57:26.964Z,29.20
2023-03-19T21:59:56.441Z,30.73
2023-03-19T22:02:41.960Z,30.10
2023-03-19T22:05:20.457Z,29.27
2023-03-19T22:07:48.802Z,29.23
2023-03-19T22:10:17.540Z,28.80
2023-03-19T22:12:46.585Z,28.70
2023-03-19T22:15:21.702Z,27.37
2023-03-19T22:17:51.631Z,28.50
2023-03-19T22:20:22.851Z,28.13
2023-03-19T22:22:51.498Z,28.10
2023-03-19T22:25:21.982Z,26.60
2023-03-19T22:27:51.773Z,26.17
2023-03-19T22:30:24.435Z,27.20
2023-03-19T22:32:56.047Z,25.47
2023-03-19T22:35:24.293Z,25.87
2023-03-19T22:37:52.445Z,22.70
2023-03-19T22:40:20.924Z,24.63
2023-03-19T22:42:50.630Z,22.93
2023-03-19T22:45:26.552Z,23.60
2023-03-19T22:47:57.952Z,23.40
2023-03-19T22:50:28.453Z,23.50
2023-03-19T22:52:57.850Z,23.37
2023-03-19T22:55:26.834Z,25.23
2023-03-19T22:57:55.006Z,24.30
2023-03-19T23:00:25.874Z,25.30
2023-03-19T23:02:58.713Z,23.67
2023-03-19T23:05:33.995Z,25.80
2023-03-19T23:08:05.850Z,25.37
2023-03-19T23:10:35.935Z,25.60
2023-03-19T23:13:04.244Z,24.77
2023-03-19T23:15:32.885Z,25.70
2023-03-19T23:18:03.780Z,26.23
2023-03-19T23:20:33.756Z,25.17
2023-03-19T23:23:02.206Z,26.10
2023-03-19T23:25:30.933Z,26.97
2023-03-19T23:28:02.566Z,26.30
2023-03-19T23:30:33.472Z,24.90
2023-03-19T23:33:04.233Z,26.77
2023-03-19T23:35:35.274Z,27.37
2023-03-19T23:38:04.049Z,27.20
2023-03-19T23:40:33.338Z,27.20
2023-03-19T23:43:03.307Z,27.10
2023-03-19T23:45:36.540Z,27.63
2023-03-19T23:48:12.466Z,26.50
2023-03-19T23:50:40.844Z,27.00
2023-03-19T23:53:19.778Z,29.00
2023-03-19T23:55:50.764Z,28.43
2023-03-19T23:58:19.513Z,27.67
